createdAt,value
2022-09-14T00:02:44.053Z,19.07
2022-09-14T00:07:48.519Z,19.03
2022-09-14T00:12:53.052Z,19.00
2022-09-14T00:17:59.324Z,19.02
2022-09-14T00:23:04.907Z,19.07
2022-09-14T00:28:09.965Z,19.09
2022-09-14T00:33:15.562Z,19.12
2022-09-14T00:38:19.476Z,19.15
2022-09-14T00:43:26.234Z,19.17
2022-09-14T00:48:32.439Z,19.18
2022-09-14T00:53:37.751Z,19.17
2022-09-14T00:58:44.509Z,19.21
2022-09-14T01:03:48.557Z,19.20
2022-09-14T01:09:05.096Z,19.22
2022-09-14T01:14:19.292Z,19.18
2022-09-14T01:19:32.916Z,19.09
2022-09-14T01:24:48.541Z,19.04
2022-09-14T01:30:03.562Z,19.03
2022-09-14T01:35:15.925Z,19.02
2022-09-14T01:40:29.330Z,18.98
2022-09-14T01:45:38.662Z,18.93
2022-09-14T01:50:46.493Z,18.91
2022-09-14T01:55:54.819Z,18.88
2022-09-14T02:01:03.421Z,18.82
2022-09-14T02:06:13.099Z,18.81
2022-09-14T02:11:16.455Z,18.81
2022-09-14T02:16:23.322Z,18.79
2022-09-14T02:21:32.468Z,18.73
2022-09-14T02:26:36.916Z,18.74
2022-09-14T02:31:57.459Z,18.72
2022-09-14T02:37:05.440Z,18.72
2022-09-14T02:42:19.934Z,18.73
2022-09-14T02:47:30.460Z,18.72
2022-09-14T02:52:38.885Z,18.69
2022-09-14T02:58:10.704Z,18.69
2022-09-14T03:03:17.154Z,18.62
2022-09-14T03:08:23.813Z,18.59
2022-09-14T03:13:29.984Z,18.58
2022-09-14T03:18:35.497Z,18.55
2022-09-14T03:23:39.952Z,18.52
2022-09-14T03:28:46.405Z,18.52
2022-09-14T03:34:00.086Z,18.51
2022-09-14T03:39:04.651Z,18.47
2022-09-14T03:44:18.298Z,18.48
2022-09-14T03:49:22.967Z,18.48
2022-09-14T03:54:26.475Z,18.43
2022-09-14T03:59:29.989Z,18.40
2022-09-14T04:04:34.413Z,18.35
2022-09-14T04:09:41.003Z,18.33
2022-09-14T04:14:45.090Z,18.34
2022-09-14T04:19:52.128Z,18.35
2022-09-14T04:24:56.932Z,18.34
2022-09-14T04:30:02.865Z,18.31
2022-09-14T04:35:08.530Z,18.31
2022-09-14T04:40:13.566Z,18.29
2022-09-14T04:45:17.743Z,18.29
2022-09-14T04:50:22.870Z,18.30
2022-09-14T04:55:29.069Z,18.22
2022-09-14T05:00:36.207Z,18.17
2022-09-14T05:05:44.815Z,18.17
2022-09-14T05:10:50.534Z,18.19
2022-09-14T05:15:54.289Z,18.18
2022-09-14T05:21:07.593Z,18.19
2022-09-14T05:26:14.720Z,18.20
2022-09-14T05:31:18.078Z,18.25
2022-09-14T05:36:30.452Z,18.28
2022-09-14T05:41:33.918Z,18.29
2022-09-14T05:46:38.784Z,18.29
2022-09-14T05:51:46.440Z,18.33
2022-09-14T05:56:52.941Z,18.33
2022-09-14T06:01:57.589Z,18.39
2022-09-14T06:07:18.310Z,18.39
2022-09-14T06:12:26.199Z,18.40
2022-09-14T06:17:31.583Z,18.43
2022-09-14T06:22:37.701Z,18.35
2022-09-14T06:27:44.480Z,18.35
2022-09-14T06:32:48.891Z,18.41
2022-09-14T06:37:56.355Z,18.47
2022-09-14T06:43:02.558Z,18.47
2022-09-14T06:48:14.681Z,18.53
2022-09-14T06:53:27.375Z,18.57
2022-09-14T06:58:31.985Z,18.51
2022-09-14T07:03:38.592Z,18.53
2022-09-14T07:08:44.745Z,18.51
2022-09-14T07:13:55.189Z,18.49
2022-09-14T07:19:07.986Z,18.49
2022-09-14T07:24:16.561Z,18.52
2022-09-14T07:29:22.123Z,18.51
2022-09-14T07:34:31.377Z,18.49
2022-09-14T07:39:40.014Z,18.53
2022-09-14T07:44:53.989Z,18.59
2022-09-14T07:49:58.786Z,18.62
2022-09-14T07:55:03.563Z,18.64
2022-09-14T08:00:09.236Z,18.61
2022-09-14T08:05:13.118Z,18.68
2022-09-14T08:10:18.012Z,18.70
2022-09-14T08:15:25.156Z,18.71
2022-09-14T08:20:31.024Z,18.73
2022-09-14T08:25:36.060Z,18.76
2022-09-14T08:30:39.821Z,18.77
2022-09-14T08:36:01.364Z,18.83
2022-09-14T08:41:13.536Z,18.84
2022-09-14T08:46:29.778Z,18.75
2022-09-14T08:51:33.345Z,18.79
2022-09-14T08:56:41.912Z,18.87
2022-09-14T09:01:54.976Z,18.92
2022-09-14T09:07:06.208Z,19.01
2022-09-14T09:12:17.690Z,19.09
2022-09-14T09:17:26.470Z,19.11
2022-09-14T09:22:39.825Z,19.11
2022-09-14T09:27:44.635Z,19.12
2022-09-14T09:32:48.803Z,19.12
2022-09-14T09:37:52.436Z,19.14
2022-09-14T09:43:10.805Z,19.19
2022-09-14T09:48:16.780Z,19.10
2022-09-14T09:53:23.922Z,19.11
2022-09-14T09:58:36.919Z,19.17
2022-09-14T10:03:42.278Z,19.16
2022-09-14T10:08:50.806Z,19.24
2022-09-14T10:13:57.143Z,19.22
2022-09-14T10:19:03.075Z,19.28
2022-09-14T10:24:19.970Z,19.28
2022-09-14T10:34:54.132Z,19.37
2022-09-14T10:40:15.995Z,19.40
2022-09-14T10:45:29.922Z,19.37
2022-09-14T10:50:46.653Z,19.32
2022-09-14T10:56:00.205Z,19.28
2022-09-14T11:01:20.366Z,19.23
2022-09-14T11:06:47.112Z,19.19
2022-09-14T11:11:59.017Z,19.10
2022-09-14T11:17:22.538Z,19.02
2022-09-14T11:22:37.300Z,18.92
2022-09-14T11:27:45.947Z,18.89
2022-09-14T11:32:56.152Z,18.87
2022-09-14T11:38:04.759Z,18.75
2022-09-14T11:43:19.721Z,18.76
2022-09-14T11:48:42.764Z,18.86
2022-09-14T11:53:48.531Z,18.84
2022-09-14T11:58:52.338Z,18.88
2022-09-14T12:04:12.356Z,18.85
2022-09-14T12:09:53.497Z,18.85
2022-09-14T12:15:03.726Z,18.83
2022-09-14T12:20:44.974Z,18.87
2022-09-14T12:25:58.540Z,18.87
2022-09-14T12:31:18.396Z,18.86
2022-09-14T12:36:58.629Z,18.89
2022-09-14T12:42:29.172Z,18.86
2022-09-14T12:48:00.725Z,18.79
2022-09-14T12:53:23.109Z,18.80
2022-09-14T12:58:45.642Z,18.79
2022-09-14T13:03:52.231Z,18.79
2022-09-14T13:09:00.170Z,18.84
2022-09-14T13:14:09.000Z,18.80
2022-09-14T13:19:26.965Z,18.84
2022-09-14T13:24:34.875Z,18.79
2022-09-14T13:29:41.557Z,18.80
2022-09-14T13:34:50.739Z,18.73
2022-09-14T13:39:58.949Z,18.79
2022-09-14T13:45:08.490Z,18.75
2022-09-14T13:50:16.364Z,18.79
2022-09-14T13:55:25.772Z,18.73
2022-09-14T14:00:36.591Z,18.69
2022-09-14T14:05:43.986Z,18.62
2022-09-14T14:10:56.632Z,18.59
2022-09-14T14:16:21.810Z,18.59
2022-09-14T14:21:29.584Z,18.54
2022-09-14T14:26:38.107Z,18.49
2022-09-14T14:31:45.111Z,18.43
2022-09-14T14:36:53.434Z,18.48
2022-09-14T14:42:04.284Z,18.52
2022-09-14T14:47:16.929Z,18.49
2022-09-14T14:52:20.382Z,18.48
2022-09-14T14:57:25.029Z,18.42
2022-09-14T15:02:33.032Z,18.36
2022-09-14T15:07:39.512Z,18.32
2022-09-14T15:12:44.971Z,18.23
2022-09-14T15:17:53.329Z,18.24
2022-09-14T15:22:57.317Z,18.21
2022-09-14T15:28:01.687Z,18.24
2022-09-14T15:33:06.631Z,18.23
2022-09-14T15:38:19.212Z,18.19
2022-09-14T15:43:33.070Z,18.13
2022-09-14T15:48:40.845Z,18.00
2022-09-14T15:53:48.090Z,17.97
2022-09-14T15:58:51.962Z,17.94
2022-09-14T16:04:09.659Z,17.88
2022-09-14T16:09:16.398Z,17.88
2022-09-14T16:14:21.415Z,17.89
2022-09-14T16:19:26.875Z,17.89
2022-09-14T16:24:31.281Z,17.76
2022-09-14T16:46:13.123Z,17.66
2022-09-14T16:51:21.054Z,17.63
2022-09-14T16:56:26.120Z,17.52
2022-09-14T17:07:01.556Z,17.49
2022-09-14T17:12:05.081Z,17.47
2022-09-14T17:17:08.031Z,17.43
2022-09-14T17:22:13.295Z,17.44
2022-09-14T17:27:17.326Z,17.42
2022-09-14T17:32:20.413Z,17.30
2022-09-14T17:37:24.919Z,17.31
2022-09-14T17:42:28.422Z,17.27
2022-09-14T17:47:31.826Z,17.23
2022-09-14T17:52:37.048Z,17.22
2022-09-14T17:57:40.291Z,17.17
2022-09-14T18:02:43.534Z,17.11
2022-09-14T18:07:49.528Z,17.06
2022-09-14T18:12:53.157Z,17.06
2022-09-14T18:17:56.357Z,17.05
2022-09-14T18:23:00.916Z,17.03
2022-09-14T18:28:04.209Z,17.01
2022-09-14T18:33:07.345Z,16.98
2022-09-14T18:38:13.513Z,16.88
2022-09-14T18:43:17.284Z,16.90
2022-09-14T18:48:20.564Z,16.91
2022-09-14T18:53:24.934Z,16.89
2022-09-14T18:58:28.100Z,16.86
2022-09-14T19:03:31.855Z,16.91
2022-09-14T19:08:36.887Z,16.84
2022-09-14T19:13:40.262Z,16.80
2022-09-14T19:18:44.557Z,16.81
2022-09-14T19:23:49.252Z,16.78
2022-09-14T19:28:53.067Z,16.73
2022-09-14T19:33:56.101Z,16.78
2022-09-14T19:39:02.613Z,16.76
2022-09-14T19:44:06.854Z,16.77
2022-09-14T19:49:15.030Z,16.78
2022-09-14T19:54:19.650Z,16.75
2022-09-14T19:59:22.681Z,16.75
2022-09-14T20:04:25.723Z,16.74
2022-09-14T20:09:30.106Z,16.73
2022-09-14T20:14:33.143Z,16.69
2022-09-14T20:19:36.649Z,16.73
2022-09-14T20:24:41.152Z,16.74
2022-09-14T20:29:44.069Z,16.75
2022-09-14T20:34:47.092Z,16.76
2022-09-14T20:39:51.596Z,16.75
2022-09-14T20:44:54.898Z,16.75
2022-09-14T20:49:58.215Z,16.73
2022-09-14T20:55:02.664Z,16.74
2022-09-14T21:00:06.654Z,16.72
2022-09-14T21:05:10.376Z,16.68
2022-09-14T21:10:14.832Z,16.71
2022-09-14T21:15:18.205Z,16.70
2022-09-14T21:20:21.451Z,16.75
2022-09-14T21:25:25.889Z,16.79
2022-09-14T21:30:28.932Z,16.84
2022-09-14T21:35:33.726Z,16.86
2022-09-14T21:40:38.236Z,16.84
2022-09-14T21:45:46.153Z,16.84
2022-09-14T21:50:49.757Z,16.82
2022-09-14T21:55:54.118Z,16.81
2022-09-14T22:00:58.875Z,16.81
2022-09-14T22:06:03.466Z,16.83
2022-09-14T22:11:09.470Z,16.80
2022-09-14T22:16:18.183Z,16.83
2022-09-14T22:21:22.513Z,16.80
2022-09-14T22:26:28.696Z,16.81
2022-09-14T22:31:33.870Z,16.80
2022-09-14T22:36:37.131Z,16.78
2022-09-14T22:41:41.949Z,16.73
2022-09-14T22:46:45.020Z,16.71
2022-09-14T22:51:48.020Z,16.71
2022-09-14T22:56:52.398Z,16.69
2022-09-14T23:01:55.481Z,16.67
2022-09-14T23:07:00.914Z,16.64
2022-09-14T23:12:05.569Z,16.65
2022-09-14T23:17:08.707Z,16.63
2022-09-14T23:22:12.233Z,16.61
2022-09-14T23:27:16.779Z,16.56
2022-09-14T23:32:19.859Z,16.51
2022-09-14T23:37:22.994Z,16.47
2022-09-14T23:42:27.374Z,16.47
2022-09-14T23:47:30.541Z,16.49
2022-09-14T23:52:33.692Z,16.44
2022-09-14T23:57:49.215Z,16.40
